PWSweather.com
Personal Weather Stations
Station Observations
RODOLIVOS
Serres, Rodolivos SerresGR 62041

SerresRodolivos SerresGR 62041

Lat: 40.920725, Lon: 23.975814

Elevation: 1161

Station Type: Davis Vantage Vue

http://rodolivos-weather.gr/

High Low Average
Temperature 44.3°F6.8°C 37.2°F2.9°C 41.5°F5.3°C
Dew Point 40.8°F4.9°C 33.7°F0.9°C 39.0°F3.9°C
Winds 6.9 mph 11.1 kmh Calm Calm 2.0 mph E3.2 kmh E
Wind Gusts 11.5 mph18.5 kmh -- 4.0 mph6.4 kmh
Humidity 100% 84% 91%
Pressure 30.00 in1015.9 mb 29.77 in1008.1 mb -
Precipitation 0.06 in1.5 mm - -
Hour Temp Dew Point Humidity Winds Wind Gusts Pressure Precip Precip Rate Daily Precip Total
06:40 AM 37.2°F2.9°C 33.7°F0.9°C 87% Calm Calm 1.2 mph1.9 kmh 29.97 in1014.9 mb - 0.00 in0.0 mm 0.00 in0.0 mm
06:50 AM 37.2°F2.9°C 33.7°F0.9°C 87% Calm Calm -- 29.97 in1014.9 mb - 0.00 in0.0 mm 0.00 in0.0 mm
07:00 AM 37.3°F2.9°C 34.1°F1.2°C 88% Calm Calm 1.2 mph1.9 kmh 29.97 in1014.9 mb - 0.00 in0.0 mm 0.00 in0.0 mm
07:10 AM 37.6°F3.1°C 34.1°F1.2°C 87% Calm Calm -- 29.98 in1015.2 mb - 0.00 in0.0 mm 0.00 in0.0 mm
07:20 AM 37.8°F3.2°C 34.6°F1.4°C 88% Calm Calm -- 29.98 in1015.2 mb - 0.00 in0.0 mm 0.00 in0.0 mm
07:30 AM 38.1°F3.4°C 35.1°F1.7°C 89% Calm Calm -- 29.98 in1015.2 mb - 0.00 in0.0 mm 0.00 in0.0 mm
07:40 AM 38.9°F3.8°C 35.9°F2.2°C 89% 1.2 mph E1.9 kmh E 2.3 mph3.7 kmh 29.98 in1015.2 mb - 0.00 in0.0 mm 0.00 in0.0 mm
07:50 AM 39.5°F4.2°C 35.7°F2.1°C 86% 2.3 mph ENE3.7 kmh ENE 3.5 mph5.6 kmh 29.98 in1015.2 mb - 0.00 in0.0 mm 0.00 in0.0 mm
08:00 AM 39.7°F4.3°C 35.6°F2.0°C 85% 2.3 mph NE3.7 kmh NE 3.5 mph5.6 kmh 29.98 in1015.2 mb - 0.00 in0.0 mm 0.00 in0.0 mm
08:10 AM 40.0°F4.4°C 35.9°F2.2°C 85% Calm Calm -- 29.98 in1015.2 mb - 0.00 in0.0 mm 0.00 in0.0 mm
08:20 AM 40.4°F4.7°C 35.9°F2.2°C 84% Calm Calm 1.2 mph1.9 kmh 29.98 in1015.2 mb - 0.00 in0.0 mm 0.00 in0.0 mm
08:30 AM 40.7°F4.8°C 36.5°F2.5°C 85% Calm Calm 1.2 mph1.9 kmh 29.98 in1015.2 mb - 0.00 in0.0 mm 0.00 in0.0 mm
08:40 AM 40.9°F4.9°C 36.7°F2.6°C 85% Calm Calm 1.2 mph1.9 kmh 29.98 in1015.2 mb - 0.00 in0.0 mm 0.00 in0.0 mm
08:50 AM 41.2°F5.1°C 36.7°F2.6°C 84% Calm Calm 1.2 mph1.9 kmh 29.98 in1015.2 mb - 0.00 in0.0 mm 0.00 in0.0 mm
09:00 AM 40.7°F4.8°C 36.6°F2.6°C 85% 1.2 mph N1.9 kmh N 3.5 mph5.6 kmh 29.98 in1015.2 mb - 0.00 in0.0 mm 0.00 in0.0 mm
09:10 AM 40.3°F4.6°C 36.7°F2.6°C 87% 2.3 mph N3.7 kmh N 2.3 mph3.7 kmh 29.99 in1015.6 mb - 0.00 in0.0 mm 0.00 in0.0 mm
09:20 AM 40.5°F4.7°C 37.2°F2.9°C 88% 1.2 mph N1.9 kmh N 2.3 mph3.7 kmh 29.99 in1015.6 mb - 0.00 in0.0 mm 0.00 in0.0 mm
09:30 AM 40.6°F4.8°C 37.6°F3.1°C 89% 2.3 mph N3.7 kmh N 4.6 mph7.4 kmh 29.99 in1015.6 mb - 0.00 in0.0 mm 0.00 in0.0 mm
09:40 AM 40.4°F4.7°C 37.4°F3.0°C 89% 3.5 mph N5.6 kmh N 6.9 mph11.1 kmh 29.99 in1015.6 mb - 0.00 in0.0 mm 0.00 in0.0 mm
09:50 AM 40.3°F4.6°C 37.6°F3.1°C 90% 2.3 mph NNE3.7 kmh NNE 6.9 mph11.1 kmh 29.99 in1015.6 mb - 0.00 in0.0 mm 0.00 in0.0 mm
10:00 AM 40.4°F4.7°C 37.7°F3.2°C 90% 3.5 mph N5.6 kmh N 6.9 mph11.1 kmh 29.99 in1015.6 mb - 0.00 in0.0 mm 0.00 in0.0 mm
10:10 AM 40.7°F4.8°C 37.7°F3.2°C 89% 2.3 mph N3.7 kmh N 3.5 mph5.6 kmh 30.00 in1015.9 mb - 0.00 in0.0 mm 0.00 in0.0 mm
10:30 AM 41.8°F5.4°C 38.2°F3.4°C 87% 2.3 mph NNE3.7 kmh NNE 3.5 mph5.6 kmh 30.00 in1015.9 mb - 0.00 in0.0 mm 0.00 in0.0 mm
10:40 AM 41.8°F5.4°C 38.5°F3.6°C 88% 2.3 mph N3.7 kmh N 4.6 mph7.4 kmh 29.99 in1015.6 mb - 0.00 in0.0 mm 0.00 in0.0 mm
10:50 AM 41.5°F5.3°C 38.5°F3.6°C 89% 2.3 mph N3.7 kmh N 4.6 mph7.4 kmh 29.99 in1015.6 mb - 0.00 in0.0 mm 0.00 in0.0 mm
11:00 AM 41.6°F5.3°C 38.6°F3.7°C 89% 1.2 mph N1.9 kmh N 5.8 mph9.3 kmh 29.99 in1015.6 mb - 0.00 in0.0 mm 0.00 in0.0 mm
11:10 AM 42.1°F5.6°C 39.1°F3.9°C 89% 3.5 mph N5.6 kmh N 6.9 mph11.1 kmh 30.00 in1015.9 mb - 0.00 in0.0 mm 0.00 in0.0 mm
11:20 AM 42.3°F5.7°C 39.0°F3.9°C 88% 3.5 mph N5.6 kmh N 4.6 mph7.4 kmh 30.00 in1015.9 mb - 0.00 in0.0 mm 0.00 in0.0 mm
11:30 AM 42.3°F5.7°C 39.0°F3.9°C 88% 2.3 mph N3.7 kmh N 3.5 mph5.6 kmh 29.99 in1015.6 mb - 0.00 in0.0 mm 0.00 in0.0 mm
11:40 AM 42.8°F6.0°C 39.2°F4.0°C 87% 2.3 mph N3.7 kmh N 3.5 mph5.6 kmh 30.00 in1015.9 mb - 0.00 in0.0 mm 0.00 in0.0 mm
11:50 AM 43.7°F6.5°C 40.0°F4.4°C 87% 2.3 mph N3.7 kmh N 4.6 mph7.4 kmh 29.99 in1015.6 mb - 0.00 in0.0 mm 0.00 in0.0 mm
12:00 PM 44.1°F6.7°C 39.9°F4.4°C 85% 2.3 mph N3.7 kmh N 5.8 mph9.3 kmh 29.98 in1015.2 mb - 0.00 in0.0 mm 0.00 in0.0 mm
12:10 PM 43.9°F6.6°C 39.7°F4.3°C 85% 2.3 mph N3.7 kmh N 4.6 mph7.4 kmh 29.98 in1015.2 mb - 0.00 in0.0 mm 0.00 in0.0 mm
12:20 PM 43.8°F6.6°C 39.6°F4.2°C 85% 1.2 mph N1.9 kmh N 6.9 mph11.1 kmh 29.98 in1015.2 mb - 0.00 in0.0 mm 0.00 in0.0 mm
12:30 PM 43.9°F6.6°C 39.7°F4.3°C 85% 3.5 mph NNE5.6 kmh NNE 5.8 mph9.3 kmh 29.97 in1014.9 mb - 0.00 in0.0 mm 0.00 in0.0 mm
12:40 PM 44.1°F6.7°C 39.5°F4.2°C 84% 3.5 mph N5.6 kmh N 6.9 mph11.1 kmh 29.97 in1014.9 mb - 0.00 in0.0 mm 0.00 in0.0 mm
12:50 PM 44.0°F6.7°C 39.7°F4.3°C 85% 1.2 mph N1.9 kmh N 2.3 mph3.7 kmh 29.97 in1014.9 mb - 0.00 in0.0 mm 0.00 in0.0 mm
01:00 PM 44.1°F6.7°C 40.2°F4.6°C 86% 4.6 mph N7.4 kmh N 6.9 mph11.1 kmh 29.96 in1014.6 mb - 0.00 in0.0 mm 0.00 in0.0 mm
01:10 PM 44.1°F6.7°C 40.2°F4.6°C 86% Calm Calm 1.2 mph1.9 kmh 29.96 in1014.6 mb - 0.00 in0.0 mm 0.00 in0.0 mm
01:20 PM 44.1°F6.7°C 40.2°F4.6°C 86% Calm Calm 2.3 mph3.7 kmh 29.95 in1014.2 mb - 0.00 in0.0 mm 0.00 in0.0 mm
01:30 PM 44.1°F6.7°C 40.2°F4.6°C 86% 1.2 mph NNE1.9 kmh NNE 3.5 mph5.6 kmh 29.95 in1014.2 mb - 0.00 in0.0 mm 0.00 in0.0 mm
01:40 PM 44.3°F6.8°C 40.7°F4.8°C 87% 3.5 mph N5.6 kmh N 6.9 mph11.1 kmh 29.95 in1014.2 mb - 0.00 in0.0 mm 0.00 in0.0 mm
01:50 PM 44.2°F6.8°C 40.6°F4.8°C 87% 3.5 mph N5.6 kmh N 5.8 mph9.3 kmh 29.95 in1014.2 mb - 0.00 in0.0 mm 0.00 in0.0 mm
02:00 PM 44.1°F6.7°C 40.8°F4.9°C 88% 1.2 mph N1.9 kmh N 1.2 mph1.9 kmh 29.94 in1013.9 mb - 0.00 in0.0 mm 0.00 in0.0 mm
02:10 PM 43.9°F6.6°C 40.6°F4.8°C 88% Calm Calm 1.2 mph1.9 kmh 29.94 in1013.9 mb - 0.00 in0.0 mm 0.00 in0.0 mm
02:20 PM 43.7°F6.5°C 40.4°F4.7°C 88% Calm Calm 3.5 mph5.6 kmh 29.93 in1013.5 mb - 0.00 in0.0 mm 0.00 in0.0 mm
02:30 PM 43.7°F6.5°C 40.4°F4.7°C 88% Calm Calm 1.2 mph1.9 kmh 29.93 in1013.5 mb - 0.00 in0.0 mm 0.00 in0.0 mm
02:40 PM 43.6°F6.4°C 40.3°F4.6°C 88% 1.2 mph NNE1.9 kmh NNE 2.3 mph3.7 kmh 29.93 in1013.5 mb - 0.00 in0.0 mm 0.00 in0.0 mm
02:50 PM 43.5°F6.4°C 40.5°F4.7°C 89% 1.2 mph N1.9 kmh N 2.3 mph3.7 kmh 29.93 in1013.5 mb - 0.00 in0.0 mm 0.00 in0.0 mm
03:00 PM 43.5°F6.4°C 40.5°F4.7°C 89% Calm Calm 1.2 mph1.9 kmh 29.93 in1013.5 mb - 0.00 in0.0 mm 0.00 in0.0 mm
03:10 PM 43.5°F6.4°C 40.8°F4.9°C 90% 2.3 mph N3.7 kmh N 3.5 mph5.6 kmh 29.92 in1013.2 mb - 0.00 in0.0 mm 0.00 in0.0 mm
03:20 PM 43.4°F6.3°C 40.6°F4.8°C 90% Calm Calm 1.2 mph1.9 kmh 29.92 in1013.2 mb - 0.00 in0.0 mm 0.00 in0.0 mm
03:30 PM 43.3°F6.3°C 40.6°F4.8°C 90% Calm Calm 1.2 mph1.9 kmh 29.92 in1013.2 mb - 0.00 in0.0 mm 0.00 in0.0 mm
03:40 PM 43.2°F6.2°C 40.5°F4.7°C 90% 1.2 mph NNE1.9 kmh NNE 2.3 mph3.7 kmh 29.91 in1012.9 mb - 0.00 in0.0 mm 0.00 in0.0 mm
03:50 PM 43.2°F6.2°C 40.7°F4.8°C 91% Calm Calm 1.2 mph1.9 kmh 29.91 in1012.9 mb - 0.00 in0.0 mm 0.00 in0.0 mm
04:00 PM 43.0°F6.1°C 40.6°F4.8°C 91% Calm Calm 2.3 mph3.7 kmh 29.91 in1012.9 mb - 0.00 in0.0 mm 0.00 in0.0 mm
04:10 PM 42.8°F6.0°C 40.6°F4.8°C 92% 1.2 mph NE1.9 kmh NE 3.5 mph5.6 kmh 29.90 in1012.5 mb - 0.01 in0.3 mm 0.01 in0.3 mm
04:20 PM 42.6°F5.9°C 40.5°F4.7°C 92% 2.3 mph N3.7 kmh N 4.6 mph7.4 kmh 29.90 in1012.5 mb - 0.00 in0.0 mm 0.01 in0.3 mm
04:30 PM 42.3°F5.7°C 40.4°F4.7°C 93% 2.3 mph N3.7 kmh N 3.5 mph5.6 kmh 29.89 in1012.2 mb - 0.00 in0.0 mm 0.01 in0.3 mm
04:40 PM 41.9°F5.5°C 40.0°F4.4°C 93% 1.2 mph N1.9 kmh N 2.3 mph3.7 kmh 29.89 in1012.2 mb - 0.00 in0.0 mm 0.01 in0.3 mm
04:50 PM 41.7°F5.4°C 40.1°F4.5°C 94% 1.2 mph NE1.9 kmh NE 1.2 mph1.9 kmh 29.89 in1012.2 mb - 0.00 in0.0 mm 0.01 in0.3 mm
05:00 PM 41.6°F5.3°C 40.0°F4.4°C 94% 1.2 mph N1.9 kmh N 2.3 mph3.7 kmh 29.88 in1011.9 mb - 0.00 in0.0 mm 0.01 in0.3 mm
05:10 PM 41.5°F5.3°C 39.9°F4.4°C 94% Calm Calm 2.3 mph3.7 kmh 29.88 in1011.9 mb - 0.00 in0.0 mm 0.01 in0.3 mm
05:20 PM 41.4°F5.2°C 39.8°F4.3°C 94% Calm Calm 2.3 mph3.7 kmh 29.88 in1011.9 mb - 0.01 in0.3 mm 0.02 in0.5 mm
05:30 PM 41.3°F5.2°C 40.0°F4.4°C 95% 2.3 mph N3.7 kmh N 3.5 mph5.6 kmh 29.88 in1011.9 mb - 0.00 in0.0 mm 0.02 in0.5 mm
05:40 PM 41.2°F5.1°C 39.9°F4.4°C 95% 2.3 mph N3.7 kmh N 6.9 mph11.1 kmh 29.88 in1011.9 mb - 0.00 in0.0 mm 0.02 in0.5 mm
05:50 PM 41.0°F5.0°C 39.7°F4.3°C 95% 1.2 mph NE1.9 kmh NE 3.5 mph5.6 kmh 29.88 in1011.9 mb - 0.00 in0.0 mm 0.02 in0.5 mm
06:00 PM 40.8°F4.9°C 39.5°F4.2°C 95% 2.3 mph NE3.7 kmh NE 3.5 mph5.6 kmh 29.88 in1011.9 mb - 0.00 in0.0 mm 0.02 in0.5 mm
06:10 PM 40.8°F4.9°C 39.5°F4.2°C 95% 4.6 mph NNE7.4 kmh NNE 8.1 mph13.0 kmh 29.88 in1011.9 mb - 0.01 in0.3 mm 0.02 in0.5 mm
06:20 PM 40.7°F4.8°C 39.4°F4.1°C 95% 1.2 mph N1.9 kmh N 4.6 mph7.4 kmh 29.88 in1011.9 mb - 0.00 in0.0 mm 0.02 in0.5 mm
06:30 PM 40.5°F4.7°C 39.2°F4.0°C 95% 3.5 mph NE5.6 kmh NE 5.8 mph9.3 kmh 29.88 in1011.9 mb - 0.01 in0.3 mm 0.03 in0.8 mm
06:40 PM 40.5°F4.7°C 39.1°F3.9°C 95% 4.6 mph N7.4 kmh N 4.6 mph7.4 kmh 29.88 in1011.9 mb - 0.00 in0.0 mm 0.03 in0.8 mm
06:50 PM 40.5°F4.7°C 39.2°F4.0°C 95% Calm Calm 3.5 mph5.6 kmh 29.88 in1011.9 mb - 0.00 in0.0 mm 0.03 in0.8 mm
07:00 PM 40.5°F4.7°C 39.2°F4.0°C 95% 3.5 mph N5.6 kmh N 9.2 mph14.8 kmh 29.88 in1011.9 mb - 0.01 in0.3 mm 0.04 in1.0 mm
07:10 PM 40.5°F4.7°C 40.5°F4.7°C 100% 1.2 mph NNE1.9 kmh NNE 5.8 mph9.3 kmh 29.87 in1011.5 mb - 0.01 in0.3 mm 0.05 in1.3 mm
07:20 PM 40.5°F4.7°C 40.5°F4.7°C 100% 1.2 mph NE1.9 kmh NE 5.8 mph9.3 kmh 29.87 in1011.5 mb - 0.00 in0.0 mm 0.05 in1.3 mm
07:30 PM 40.4°F4.7°C 40.4°F4.7°C 100% Calm Calm 1.2 mph1.9 kmh 29.87 in1011.5 mb - 0.00 in0.0 mm 0.05 in1.3 mm
07:40 PM 40.5°F4.7°C 40.5°F4.7°C 100% 1.2 mph ENE1.9 kmh ENE 4.6 mph7.4 kmh 29.86 in1011.2 mb - 0.00 in0.0 mm 0.05 in1.3 mm
07:50 PM 40.5°F4.7°C 40.5°F4.7°C 100% 4.6 mph NNE7.4 kmh NNE 10.4 mph16.7 kmh 29.86 in1011.2 mb - 0.00 in0.0 mm 0.05 in1.3 mm
08:00 PM 40.5°F4.7°C 40.5°F4.7°C 100% 1.2 mph N1.9 kmh N 2.3 mph3.7 kmh 29.86 in1011.2 mb - 0.00 in0.0 mm 0.05 in1.3 mm
08:10 PM 40.5°F4.7°C 40.5°F4.7°C 100% 4.6 mph NNE7.4 kmh NNE 5.8 mph9.3 kmh 29.85 in1010.8 mb - 0.00 in0.0 mm 0.05 in1.3 mm
08:20 PM 40.5°F4.7°C 40.5°F4.7°C 100% 1.2 mph ENE1.9 kmh ENE 3.5 mph5.6 kmh 29.85 in1010.8 mb - 0.00 in0.0 mm 0.05 in1.3 mm
08:30 PM 40.4°F4.7°C 40.4°F4.7°C 100% 2.3 mph NE3.7 kmh NE 5.8 mph9.3 kmh 29.86 in1011.2 mb - 0.00 in0.0 mm 0.05 in1.3 mm
08:40 PM 40.4°F4.7°C 40.4°F4.7°C 100% 4.6 mph NNE7.4 kmh NNE 9.2 mph14.8 kmh 29.85 in1010.8 mb - 0.01 in0.3 mm 0.06 in1.5 mm
08:50 PM 40.3°F4.6°C 40.3°F4.6°C 100% 5.8 mph NNE9.3 kmh NNE 8.1 mph13.0 kmh 29.83 in1010.2 mb - 0.00 in0.0 mm 0.06 in1.5 mm
09:00 PM 40.3°F4.6°C 40.3°F4.6°C 100% 2.3 mph N3.7 kmh N 5.8 mph9.3 kmh 29.84 in1010.5 mb - 0.00 in0.0 mm 0.06 in1.5 mm
10:20 PM 40.5°F4.7°C 39.4°F4.1°C 96% 5.8 mph NE9.3 kmh NE 8.1 mph13.0 kmh 29.81 in1009.5 mb - 0.00 in0.0 mm 0.06 in1.5 mm
10:30 PM 40.5°F4.7°C 39.4°F4.1°C 96% 4.6 mph N7.4 kmh N 10.4 mph16.7 kmh 29.79 in1008.8 mb - 0.00 in0.0 mm 0.06 in1.5 mm
10:40 PM 40.4°F4.7°C 39.4°F4.1°C 96% 6.9 mph N11.1 kmh N 9.2 mph14.8 kmh 29.78 in1008.5 mb - 0.00 in0.0 mm 0.06 in1.5 mm
10:50 PM 40.5°F4.7°C 39.4°F4.1°C 96% 3.5 mph NNW5.6 kmh NNW 4.6 mph7.4 kmh 29.78 in1008.5 mb - 0.00 in0.0 mm 0.06 in1.5 mm
11:00 PM 40.6°F4.8°C 39.5°F4.2°C 96% 5.8 mph N9.3 kmh N 10.4 mph16.7 kmh 29.78 in1008.5 mb - 0.00 in0.0 mm 0.06 in1.5 mm
11:10 PM 40.6°F4.8°C 39.5°F4.2°C 96% 3.5 mph NE5.6 kmh NE 6.9 mph11.1 kmh 29.78 in1008.5 mb - 0.00 in0.0 mm 0.06 in1.5 mm
11:20 PM 40.7°F4.8°C 39.6°F4.2°C 96% 4.6 mph NNE7.4 kmh NNE 11.5 mph18.5 kmh 29.77 in1008.1 mb - 0.00 in0.0 mm 0.06 in1.5 mm